Latest Weather Observations for Loxton

IDS60801

Issued at 2:11 pm CDT Wednesday 1 December 2021 (issued every 10 minutes, with the page automatically refreshed every 10 minutes)

About weather observations | Map of weather stations | Latest weather observations for SA | Other Formats
Station Details ID: 024024 Name: LOXTON RESEARCH CENTRE Lat: -34.44 Lon: 140.60 Height: 30.1 m
Data from the previous 72 hours. | See also: Recent months at Loxton
Date/Time
CDT
Temp
°C
App
Temp
°C
Dew
Point
°C
Rel
Hum
%
Delta-T
°C
Wind Press
QNH
hPa
Press
MSL
hPa
Rain since
9am
mm
Dir  Spd
km/h
Gust
km/h
Spd
kts
Gust
kts
01/02:00pm 34.8 31.5 6.2 17 15.6 NNW 13 26 7 14 1010.0 1009.9 0.0
01/01:30pm 35.0 31.5 7.1 18 15.5 N 15 28 8 15 1010.1 1010.0 0.0
01/01:00pm 35.1 32.0 7.2 18 15.5 NW 13 22 7 12 1010.4 1010.3 0.0
01/12:30pm 34.3 31.2 10.2 23 14.0 NNW 17 28 9 15 1010.6 1010.5 0.0
01/12:00pm 33.7 30.6 10.3 24 13.5 NNW 17 28 9 15 1010.8 1010.7 0.0
01/11:30am 33.1 30.6 11.0 26 12.9 NNW 15 26 8 14 1011.1 1011.0 0.0
01/11:00am 30.9 30.0 13.7 35 10.4 NNW 11 20 6 11 1011.1 1011.0 0.0
01/10:30am 30.0 28.6 13.3 36 10.0 NNW 13 24 7 13 1011.2 1011.1 0.0
01/10:00am 28.4 26.9 14.3 42 8.5 NNE 15 20 8 11 1010.7 1010.7 0.0
01/09:30am 28.5 27.0 13.2 39 9.1 NNW 13 19 7 10 1011.3 1011.3 0.0
01/09:00am 28.6 26.8 14.4 41 8.6 N 17 28 9 15 1011.0 1011.0 0.0
01/08:30am 27.1 24.3 12.7 41 8.4 NNW 19 30 10 16 1011.1 1011.1 0.0
01/08:00am 25.6 25.0 13.5 47 7.1 NNW 9 13 5 7 1011.0 1011.0 0.0
01/07:30am 22.9 22.5 13.1 54 5.7 NNE 7 11 4 6 1010.9 1010.9 0.0
01/07:00am 20.1 19.5 10.5 54 5.2 ESE 4 7 2 4 1010.5 1010.5 0.0
01/06:30am 16.4 15.8 11.8 74 2.5 NE 6 9 3 5 1009.9 1009.9 0.0
01/06:00am 14.1 14.3 10.5 79 1.9 CALM 0 0 0 0 1009.5 1009.5 0.0
01/05:30am 14.4 14.6 10.6 78 2.0 CALM 0 0 0 0 1009.0 1009.0 0.0
01/05:00am 14.6 14.4 9.0 69 2.9 CALM 0 6 0 3 1008.8 1008.8 0.0
01/04:30am 14.8 15.1 10.8 77 2.1 CALM 0 0 0 0 1008.8 1008.8 0.0
01/04:00am 15.8 15.9 10.1 69 3.0 CALM 0 0 0 0 1008.9 1008.9 0.0
01/03:30am 17.1 16.1 9.0 59 4.2 ENE 4 11 2 6 1009.0 1009.0 0.0
01/03:00am 18.1 16.6 9.2 56 4.7 SE 7 9 4 5 1008.8 1008.8 0.0
01/02:30am 18.7 17.2 9.2 54 5.0 SSE 7 11 4 6 1008.8 1008.8 0.0
01/02:00am 20.2 18.0 7.9 45 6.4 SE 9 13 5 7 1008.9 1008.9 0.0
01/01:30am 20.9 18.2 7.2 41 7.0 SSE 11 13 6 7 1009.1 1009.1 0.0
01/01:00am 20.4 18.2 7.7 44 6.5 SSE 9 13 5 7 1009.4 1009.4 0.0
01/12:30am 22.4 19.0 5.8 34 8.4 S 13 15 7 8 1009.6 1009.6 0.0
01/12:00am 22.4 19.0 5.8 34 8.4 S 13 15 7 8 1009.8 1009.8 0.0
 
Date/Time
CDT
Temp
°C
App
Temp
°C
Dew
Point
°C
Rel
Hum
%
Delta-T
°C
Wind Press
QNH
hPa
Press
MSL
hPa
Rain since
9am
mm
Dir  Spd
km/h
Gust
km/h
Spd
kts
Gust
kts
30/11:44pm 22.0 18.3 7.8 40 7.4 SSW 17 20 9 11 1009.7 1009.7 0.0
30/11:30pm 16.9 17.3 11.4 70 3.0 CALM 0 0 0 0 1009.6 1009.6 0.0
30/11:00pm 17.5 18.1 11.8 69 3.1 CALM 0 0 0 0 1009.4 1009.4 0.0
30/10:30pm 18.2 19.2 13.3 73 2.8 CALM 0 0 0 0 1009.2 1009.2 0.0
30/10:00pm 18.7 19.5 12.5 67 3.5 CALM 0 0 0 0 1009.3 1009.3 0.0
30/09:30pm 20.1 21.1 13.3 65 3.9 CALM 0 0 0 0 1009.0 1009.0 0.0
30/09:00pm 21.2 22.3 13.6 62 4.4 CALM 0 0 0 0 1008.8 1008.8 0.0
30/08:30pm 22.9 23.9 13.1 54 5.7 CALM 0 0 0 0 1008.5 1008.5 0.0
30/08:00pm 25.5 26.4 13.0 46 7.3 CALM 0 0 0 0 1008.3 1008.3 0.0
30/07:30pm 29.7 29.4 12.6 35 10.1 NE 6 7 3 4 1008.0 1008.0 0.0
30/07:00pm 32.2 30.2 6.4 20 13.9 NE 6 7 3 4 1007.8 1007.8 0.0
30/06:30pm 32.7 30.7 6.1 19 14.4 ENE 6 7 3 4 1007.7 1007.7 0.0
30/06:00pm 33.5 31.7 3.3 15 15.6 SSW 2 7 1 4 1007.5 1007.5 0.0
30/05:30pm 33.0 30.7 5.5 18 14.7 ENE 7 11 4 6 1007.6 1007.6 0.0
30/05:00pm 33.1 30.9 6.4 19 14.5 ENE 7 11 4 6 1007.8 1007.8 0.0
30/04:30pm 33.3 29.9 4.1 16 15.3 ESE 11 13 6 7 1007.9 1007.9 0.0
30/04:00pm 33.6 31.2 4.3 16 15.4 ENE 6 9 3 5 1008.2 1008.2 0.0
30/03:30pm 33.1 30.0 5.6 18 14.7 SE 11 20 6 11 1008.6 1008.6 0.0
30/03:00pm 32.6 29.4 5.2 18 14.6 S 11 15 6 8 1008.9 1008.9 0.0
30/02:30pm 32.5 29.7 5.1 18 14.5 ENE 9 15 5 8 1009.4 1009.4 0.0
30/02:00pm 32.0 28.5 5.5 19 14.1 N 13 19 7 10 1009.9 1009.9 0.0
30/01:30pm 31.8 29.0 5.3 19 14.0 NE 9 15 5 8 1010.3 1010.3 0.0
30/01:00pm 32.4 30.3 6.6 20 14.0 N 7 13 4 7 1010.6 1010.6 0.0
30/12:30pm 31.2 28.5 5.6 20 13.6 S 9 20 5 11 1011.2 1011.2 0.0
30/12:00pm 31.2 28.3 6.3 21 13.3 N 11 20 6 11 1011.5 1011.5 0.0
30/11:30am 30.3 27.2 5.6 21 13.0 WNW 11 19 6 10 1011.7 1011.7 0.0
30/11:00am 30.9 28.3 6.0 21 13.3 ENE 9 15 5 8 1012.2 1012.2 0.0
30/10:30am 29.8 28.1 7.7 25 12.0 NNE 6 9 3 5 1012.6 1012.6 0.0
30/10:00am 28.1 26.4 9.9 32 10.2 N 9 13 5 7 1012.9 1012.8 0.0
30/09:30am 27.0 25.6 9.4 33 9.7 NNE 7 11 4 6 1013.1 1013.0 0.0
30/09:00am 25.0 24.2 8.1 34 9.0 NE 2 6 1 3 1013.4 1013.3 0.0
30/08:30am 23.8 21.8 7.0 34 8.7 ENE 7 9 4 5 1013.4 1013.3 0.0
30/08:00am 22.0 20.5 7.0 38 7.7 ESE 4 7 2 4 1013.4 1013.3 0.0
30/07:30am 19.0 15.8 5.1 40 6.8 ESE 11 13 6 7 1013.2 1013.1 0.0
30/07:00am 17.9 15.6 5.8 45 5.9 SE 7 9 4 5 1013.1 1013.0 0.0
30/06:30am 15.6 13.3 5.8 52 4.7 SE 7 9 4 5 1012.6 1012.6 0.0
30/06:00am 12.8 10.8 7.0 68 2.8 SE 7 9 4 5 1012.6 1012.6 0.0
30/05:30am 13.5 11.1 4.4 54 4.2 SE 6 7 3 4 1012.5 1012.5 0.0
30/05:00am 13.6 11.1 4.7 55 4.1 SE 7 11 4 6 1012.4 1012.4 0.0
30/04:30am 14.2 11.1 3.7 49 4.8 SSE 9 11 5 6 1012.3 1012.3 0.0
30/04:00am 13.6 10.9 5.7 59 3.7 SE 9 11 5 6 1012.2 1012.2 0.0
30/03:30am 14.5 11.5 3.9 49 4.9 SE 9 9 5 5 1012.2 1012.2 0.0
30/03:00am 15.2 12.0 3.0 44 5.5 SE 9 13 5 7 1012.3 1012.3 0.0
30/02:30am 16.1 12.6 3.5 43 5.8 SE 11 13 6 7 1012.6 1012.6 0.0
30/02:00am 17.2 13.1 2.4 37 6.7 SSE 13 17 7 9 1012.6 1012.6 0.0
30/01:30am 18.0 14.3 2.3 35 7.2 SSE 11 15 6 8 1013.1 1013.0 0.0
30/01:00am 17.8 13.8 2.9 37 6.9 SSE 13 15 7 8 1013.3 1013.2 0.0
30/12:30am 17.8 14.6 3.3 38 6.7 SSE 9 13 5 7 1013.7 1013.6 0.0
30/12:00am 18.9 15.7 3.1 35 7.4 SSE 9 13 5 7 1013.8 1013.7 0.0
 
Date/Time
CDT
Temp
°C
App
Temp
°C
Dew
Point
°C
Rel
Hum
%
Delta-T
°C
Wind Press
QNH
hPa
Press
MSL
hPa
Rain since
9am
mm
Dir  Spd
km/h
Gust
km/h
Spd
kts
Gust
kts
29/11:30pm 19.3 15.8 3.5 35 7.4 SSE 11 13 6 7 1013.9 1013.8 0.0
29/11:00pm 21.3 17.2 2.1 28 8.9 S 13 17 7 9 1013.9 1013.8 0.0
29/10:30pm 21.9 18.2 2.1 27 9.3 S 11 15 6 8 1013.7 1013.6 0.0
29/10:00pm 23.3 19.1 1.6 24 10.2 S 13 19 7 10 1013.3 1013.2 0.0
29/09:30pm 24.4 18.8 1.3 22 10.9 S 20 30 11 16 1013.0 1012.9 0.0
29/09:10pm 24.4 21.2 5.2 29 9.7 WNW 11 35 6 19 1012.6 1012.6 0.0
29/09:00pm 21.0 21.8 12.7 59 4.7 CALM 0 0 0 0 1012.1 1012.1 0.0
29/08:30pm 22.3 23.0 12.3 53 5.7 CALM 0 0 0 0 1012.1 1012.1 0.0
29/08:00pm 24.8 25.1 11.0 42 7.7 CALM 0 6 0 3 1012.1 1012.1 0.0
29/07:30pm 27.6 25.6 8.5 30 10.4 N 9 11 5 6 1012.0 1012.0 0.0
29/07:00pm 29.3 27.7 7.8 26 11.7 N 6 9 3 5 1012.0 1012.0 0.0
29/06:30pm 30.1 27.9 5.4 21 13.0 NE 6 7 3 4 1011.9 1011.9 0.0
29/06:00pm 30.5 28.6 5.0 20 13.3 SW 4 9 2 5 1012.0 1012.0 0.0
29/05:30pm 30.1 28.1 6.1 22 12.7 N 6 13 3 7 1012.2 1012.2 0.0
29/05:00pm 30.4 28.1 5.6 21 13.1 ENE 7 15 4 8 1012.4 1012.4 0.0
29/04:30pm 29.6 26.8 5.0 21 12.8 SE 9 15 5 8 1012.6 1012.6 0.0
29/04:00pm 29.8 27.1 5.8 22 12.7 NNE 9 15 5 8 1013.0 1012.9 0.0
29/03:30pm 29.7 27.8 7.6 25 12.0 E 7 19 4 10 1013.3 1013.2 0.0
29/03:00pm 30.3 28.0 7.5 24 12.4 S 9 20 5 11 1013.6 1013.5 0.0
29/02:30pm 29.7 26.8 6.4 23 12.4 ESE 11 19 6 10 1014.0 1013.9 0.0
29/02:00pm 29.7 27.5 6.4 23 12.4 NE 7 15 4 8 1014.5 1014.4 0.0
29/01:30pm 29.6 27.0 6.3 23 12.4 SSE 9 17 5 9 1014.8 1014.7 0.0
29/01:00pm 28.5 24.9 6.6 25 11.6 NE 15 20 8 11 1015.2 1015.1 0.0
29/12:30pm 28.4 26.4 8.7 29 10.8 N 9 17 5 9 1015.6 1015.5 0.0
29/12:00pm 27.4 25.2 9.3 32 10.0 NNW 11 22 6 12 1016.1 1016.0 0.0
29/11:30am 27.0 24.6 10.2 35 9.4 N 13 19 7 10 1016.4 1016.3 0.0
29/11:00am 25.3 22.8 9.6 37 8.6 N 13 19 7 10 1016.8 1016.7 0.0
29/10:30am 24.2 22.6 10.1 41 7.8 NNW 9 15 5 8 1017.0 1016.9 0.0
29/10:00am 22.7 21.1 10.2 45 6.8 NNW 9 13 5 7 1017.3 1017.2 0.0
29/09:30am 21.3 20.5 11.6 54 5.4 NNW 7 11 4 6 1017.4 1017.3 0.0
29/09:00am 19.5 19.1 11.0 58 4.6 NE 4 7 2 4 1017.5 1017.4 0.0
29/08:30am 18.4 18.7 10.8 61 4.1 CALM 0 0 0 0 1017.6 1017.5 0.0
29/08:00am 16.5 16.0 10.8 69 3.0 WSW 4 7 2 4 1017.6 1017.5 0.0
29/07:30am 14.9 13.7 10.3 74 2.4 SW 7 9 4 5 1017.4 1017.3 0.0
29/07:00am 14.1 12.9 10.3 78 2.0 SW 7 9 4 5 1017.1 1017.0 0.0
29/06:30am 13.0 13.2 10.4 84 1.3 CALM 0 0 0 0 1016.7 1016.6 0.0
29/06:00am 11.7 11.6 9.4 86 1.2 CALM 0 0 0 0 1016.4 1016.3 0.0
29/05:30am 11.5 11.3 8.9 84 1.3 CALM 0 0 0 0 1016.1 1016.0 0.0
29/05:00am 12.4 12.2 9.1 80 1.7 CALM 0 6 0 3 1016.0 1015.9 0.0
29/04:30am 12.7 11.0 8.4 75 2.1 SW 7 9 4 5 1016.0 1015.9 0.0
29/04:00am 13.3 11.1 8.0 70 2.6 WSW 9 11 5 6 1016.0 1015.9 0.0
29/03:30am 13.6 11.2 6.9 64 3.2 WSW 9 11 5 6 1016.1 1016.0 0.0
29/03:00am 14.1 11.5 6.0 58 3.9 SW 9 13 5 7 1016.2 1016.1 0.0
29/02:30am 14.4 12.1 5.5 55 4.2 WSW 7 9 4 5 1016.5 1016.4 0.0
29/02:00am 15.4 12.5 4.8 49 5.0 WSW 9 11 5 6 1016.6 1016.5 0.0
29/01:30am 15.9 12.9 4.0 45 5.5 SW 9 13 5 7 1016.9 1016.8 0.0
29/01:00am 16.6 13.8 3.0 40 6.2 WSW 7 11 4 6 1017.1 1017.0 0.0
29/12:30am 17.4 14.0 1.8 35 7.0 SW 9 15 5 8 1017.2 1017.1 0.0
29/12:00am 18.5 14.3 1.5 32 7.6 SSW 13 20 7 11 1017.4 1017.3 0.0
 
Date/Time
CDT
Temp
°C
App
Temp
°C
Dew
Point
°C
Rel
Hum
%
Delta-T
°C
Wind Press
QNH
hPa
Press
MSL
hPa
Rain since
9am
mm
Dir  Spd
km/h
Gust
km/h
Spd
kts
Gust
kts
28/11:30pm 19.2 15.3 1.2 30 8.1 SSW 11 17 6 9 1017.4 1017.3 0.0
28/11:00pm 20.0 14.9 0.5 27 8.7 SSW 17 24 9 13 1017.2 1017.1 0.0
28/10:30pm 20.7 15.2 0.5 26 9.1 SSW 19 26 10 14 1017.0 1016.9 0.0
28/10:00pm 21.3 16.3 1.6 27 9.1 SSW 17 24 9 13 1017.0 1016.9 0.0
28/09:30pm 22.4 16.5 2.0 26 9.5 SSW 22 33 12 18 1016.8 1016.7 0.0
28/09:00pm 23.0 18.0 3.5 28 9.4 SSW 19 26 10 14 1016.7 1016.6 0.0
28/08:30pm 24.0 18.6 4.4 28 9.7 SSW 22 35 12 19 1016.5 1016.4 0.0
28/08:00pm 24.2 23.5 11.5 45 7.2 SSW 6 7 3 4 1015.9 1015.8 0.0
28/07:30pm 27.2 25.2 7.1 28 10.7 SSW 7 9 4 5 1015.8 1015.7 0.0
28/07:00pm 28.4 26.1 5.9 24 11.8 S 7 11 4 6 1015.7 1015.6 0.0
28/06:30pm 28.5 25.4 5.4 23 12.0 SSW 11 15 6 8 1015.8 1015.7 0.0
28/06:00pm 28.7 26.5 5.5 23 12.1 S 6 13 3 7 1015.8 1015.7 0.0
28/05:30pm 28.5 26.3 5.4 23 12.0 N 6 9 3 5 1015.7 1015.6 0.0
28/05:00pm 28.4 26.1 5.9 24 11.8 SE 7 13 4 7 1015.9 1015.8 0.0
28/04:30pm 28.8 26.9 6.8 25 11.7 S 6 9 3 5 1016.2 1016.1 0.0
28/04:00pm 28.7 26.5 7.9 27 11.3 W 9 15 5 8 1016.4 1016.3 0.0
28/03:30pm 28.0 26.0 7.3 27 11.1 SW 7 22 4 12 1016.8 1016.7 0.0
28/03:00pm 27.6 24.0 6.9 27 11.0 W 15 22 8 12 1017.2 1017.1 0.0
28/02:30pm 27.4 25.0 6.8 27 10.9 ESE 9 24 5 13 1017.6 1017.5 0.0

Other formats

Comma delimited format used in spreadsheet applications
http://www.bom.gov.au/fwo/IDS60801/IDS60801.94682.axf

JavaScript Object Notation format (JSON) in row-major order
http://www.bom.gov.au/fwo/IDS60801/IDS60801.94682.json

Data quality

Most of these data are generated automatically and are frequently updated. Quality checks on data are not normally performed. It is possible for incorrect values to appear. Refer to information at About Latest Weather Observations and please check the disclaimer before using these data.